sensor_id;sensor_type;location;lat;lon;timestamp;pressure;altitude;pressure_sealevel;temperature;humidity
10071;BME280;5074;53.720;10.014;2022-10-16T00:01:04;100510.03;;;12.24;100.00
10071;BME280;5074;53.720;10.014;2022-10-16T00:03:33;100513.59;;;12.24;100.00
10071;BME280;5074;53.720;10.014;2022-10-16T00:06:01;100510.97;;;12.23;100.00
10071;BME280;5074;53.720;10.014;2022-10-16T00:08:30;100509.97;;;12.25;100.00
10071;BME280;5074;53.720;10.014;2022-10-16T00:11:00;100512.81;;;12.22;100.00
10071;BME280;5074;53.720;10.014;2022-10-16T00:13:28;100525.31;;;12.22;100.00
10071;BME280;5074;53.720;10.014;2022-10-16T00:15:59;100512.06;;;12.19;100.00
10071;BME280;5074;53.720;10.014;2022-10-16T00:18:27;100512.13;;;12.17;100.00
10071;BME280;5074;53.720;10.014;2022-10-16T00:21:00;100524.75;;;12.15;100.00
10071;BME280;5074;53.720;10.014;2022-10-16T00:23:28;100526.59;;;12.13;100.00
10071;BME280;5074;53.720;10.014;2022-10-16T00:25:58;100527.50;;;12.13;100.00
10071;BME280;5074;53.720;10.014;2022-10-16T00:28:26;100526.59;;;12.13;100.00
10071;BME280;5074;53.720;10.014;2022-10-16T00:30:54;100523.06;;;12.12;100.00
10071;BME280;5074;53.720;10.014;2022-10-16T00:33:24;100520.47;;;12.11;100.00
10071;BME280;5074;53.720;10.014;2022-10-16T00:35:52;100525.00;;;12.09;100.00
10071;BME280;5074;53.720;10.014;2022-10-16T00:38:20;100532.16;;;12.08;100.00
10071;BME280;5074;53.720;10.014;2022-10-16T00:40:48;100541.97;;;12.09;100.00
10071;BME280;5074;53.720;10.014;2022-10-16T00:43:32;100537.31;;;12.13;100.00
10071;BME280;5074;53.720;10.014;2022-10-16T00:46:03;100526.88;;;12.07;100.00
10071;BME280;5074;53.720;10.014;2022-10-16T00:48:32;100531.09;;;12.12;100.00
10071;BME280;5074;53.720;10.014;2022-10-16T00:51:01;100530.09;;;12.15;100.00
10071;BME280;5074;53.720;10.014;2022-10-16T00:53:29;100529.88;;;12.20;100.00
10071;BME280;5074;53.720;10.014;2022-10-16T00:55:58;100536.91;;;12.22;100.00
10071;BME280;5074;53.720;10.014;2022-10-16T00:58:26;100535.94;;;12.23;100.00
10071;BME280;5074;53.720;10.014;2022-10-16T01:00:54;100530.59;;;12.23;100.00
10071;BME280;5074;53.720;10.014;2022-10-16T01:03:25;100529.81;;;12.21;100.00
10071;BME280;5074;53.720;10.014;2022-10-16T01:06:05;100533.28;;;12.23;100.00
10071;BME280;5074;53.720;10.014;2022-10-16T01:08:45;100540.59;;;12.20;100.00
10071;BME280;5074;53.720;10.014;2022-10-16T01:11:21;100533.56;;;12.17;100.00
10071;BME280;5074;53.720;10.014;2022-10-16T01:13:53;100535.38;;;12.16;100.00
10071;BME280;5074;53.720;10.014;2022-10-16T01:16:29;100546.09;;;12.16;100.00
10071;BME280;5074;53.720;10.014;2022-10-16T01:19:08;100540.88;;;12.13;100.00
10071;BME280;5074;53.720;10.014;2022-10-16T01:21:40;100542.66;;;12.13;100.00
10071;BME280;5074;53.720;10.014;2022-10-16T01:24:17;100538.91;;;12.17;100.00
10071;BME280;5074;53.720;10.014;2022-10-16T01:27:05;100550.56;;;12.16;100.00
10071;BME280;5074;53.720;10.014;2022-10-16T01:29:37;100554.22;;;12.15;100.00
10071;BME280;5074;53.720;10.014;2022-10-16T01:32:11;100557.03;;;12.12;100.00
10071;BME280;5074;53.720;10.014;2022-10-16T01:34:46;100563.38;;;12.09;100.00
10071;BME280;5074;53.720;10.014;2022-10-16T01:37:20;100558.25;;;12.05;100.00
10071;BME280;5074;53.720;10.014;2022-10-16T01:39:53;100556.63;;;12.01;100.00
10071;BME280;5074;53.720;10.014;2022-10-16T01:42:28;100552.28;;;11.98;100.00
10071;BME280;5074;53.720;10.014;2022-10-16T01:44:59;100545.25;;;11.95;100.00
10071;BME280;5074;53.720;10.014;2022-10-16T01:47:29;100549.66;;;11.96;100.00
10071;BME280;5074;53.720;10.014;2022-10-16T01:49:59;100554.16;;;11.96;100.00
10071;BME280;5074;53.720;10.014;2022-10-16T01:52:29;100558.75;;;11.92;100.00
10071;BME280;5074;53.720;10.014;2022-10-16T01:54:58;100556.13;;;11.91;100.00
10071;BME280;5074;53.720;10.014;2022-10-16T01:57:29;100556.19;;;11.89;100.00
10071;BME280;5074;53.720;10.014;2022-10-16T02:00:04;100553.59;;;11.88;100.00
10071;BME280;5074;53.720;10.014;2022-10-16T02:02:34;100554.66;;;11.84;100.00
10071;BME280;5074;53.720;10.014;2022-10-16T02:05:05;100561.16;;;11.78;100.00
10071;BME280;5074;53.720;10.014;2022-10-16T02:07:37;100558.47;;;11.78;100.00
10071;BME280;5074;53.720;10.014;2022-10-16T02:10:05;100564.59;;;11.81;100.00
10071;BME280;5074;53.720;10.014;2022-10-16T02:12:36;100552.44;;;11.73;100.00
10071;BME280;5074;53.720;10.014;2022-10-16T02:15:07;100557.06;;;11.69;100.00
10071;BME280;5074;53.720;10.014;2022-10-16T02:17:35;100567.00;;;11.67;100.00
10071;BME280;5074;53.720;10.014;2022-10-16T02:20:04;100548.25;;;11.67;100.00
10071;BME280;5074;53.720;10.014;2022-10-16T02:22:34;100556.38;;;11.64;100.00
10071;BME280;5074;53.720;10.014;2022-10-16T02:25:06;100552.06;;;11.61;100.00
10071;BME280;5074;53.720;10.014;2022-10-16T02:27:41;100559.41;;;11.56;100.00
10071;BME280;5074;53.720;10.014;2022-10-16T02:30:14;100560.25;;;11.57;100.00
10071;BME280;5074;53.720;10.014;2022-10-16T02:32:48;100564.75;;;11.56;100.00
10071;BME280;5074;53.720;10.014;2022-10-16T02:35:18;100570.09;;;11.56;100.00
10071;BME280;5074;53.720;10.014;2022-10-16T02:37:49;100571.16;;;11.52;100.00
10071;BME280;5074;53.720;10.014;2022-10-16T02:40:18;100567.69;;;11.50;100.00
10071;BME280;5074;53.720;10.014;2022-10-16T02:42:53;100566.72;;;11.53;100.00
10071;BME280;5074;53.720;10.014;2022-10-16T02:45:23;100566.78;;;11.51;100.00
10071;BME280;5074;53.720;10.014;2022-10-16T02:47:51;100570.66;;;11.44;100.00
10071;BME280;5074;53.720;10.014;2022-10-16T02:50:19;100572.44;;;11.43;100.00
10071;BME280;5074;53.720;10.014;2022-10-16T02:52:47;100575.09;;;11.43;100.00
10071;BME280;5074;53.720;10.014;2022-10-16T02:55:15;100565.41;;;11.41;100.00
10071;BME280;5074;53.720;10.014;2022-10-16T02:57:43;100569.03;;;11.40;100.00
10071;BME280;5074;53.720;10.014;2022-10-16T03:00:15;100569.94;;;11.39;100.00
10071;BME280;5074;53.720;10.014;2022-10-16T03:02:44;100565.59;;;11.36;100.00
10071;BME280;5074;53.720;10.014;2022-10-16T03:05:13;100571.94;;;11.34;100.00
10071;BME280;5074;53.720;10.014;2022-10-16T03:07:42;100570.34;;;11.29;100.00
10071;BME280;5074;53.720;10.014;2022-10-16T03:10:10;100562.31;;;11.29;100.00
10071;BME280;5074;53.720;10.014;2022-10-16T03:12:38;100562.41;;;11.26;100.00
10071;BME280;5074;53.720;10.014;2022-10-16T03:15:07;100566.19;;;11.22;100.00
10071;BME280;5074;53.720;10.014;2022-10-16T03:17:36;100560.06;;;11.19;100.00
10071;BME280;5074;53.720;10.014;2022-10-16T03:20:05;100561.00;;;11.18;100.00
10071;BME280;5074;53.720;10.014;2022-10-16T03:22:33;100557.59;;;11.14;100.00
10071;BME280;5074;53.720;10.014;2022-10-16T03:25:01;100549.69;;;11.11;100.00
10071;BME280;5074;53.720;10.014;2022-10-16T03:27:29;100560.53;;;11.08;100.00
10071;BME280;5074;53.720;10.014;2022-10-16T03:29:57;100561.44;;;11.07;100.00
10071;BME280;5074;53.720;10.014;2022-10-16T03:32:25;100572.88;;;11.10;100.00
10071;BME280;5074;53.720;10.014;2022-10-16T03:34:56;100567.72;;;11.06;100.00
10071;BME280;5074;53.720;10.014;2022-10-16T03:37:24;100558.22;;;10.99;100.00
10071;BME280;5074;53.720;10.014;2022-10-16T03:39:53;100569.66;;;11.02;100.00
10071;BME280;5074;53.720;10.014;2022-10-16T03:42:21;100571.44;;;11.02;100.00
10071;BME280;5074;53.720;10.014;2022-10-16T03:44:49;100562.44;;;11.04;100.00
10071;BME280;5074;53.720;10.014;2022-10-16T03:47:17;100573.19;;;11.03;100.00
10071;BME280;5074;53.720;10.014;2022-10-16T03:49:48;100575.03;;;11.02;100.00
10071;BME280;5074;53.720;10.014;2022-10-16T03:52:18;100578.63;;;11.01;100.00
10071;BME280;5074;53.720;10.014;2022-10-16T03:54:46;100574.31;;;10.97;100.00
10071;BME280;5074;53.720;10.014;2022-10-16T03:57:14;100581.41;;;10.98;100.00
10071;BME280;5074;53.720;10.014;2022-10-16T03:59:42;100578.63;;;11.01;100.00
10071;BME280;5074;53.720;10.014;2022-10-16T04:02:10;100577.97;;;10.94;100.00
10071;BME280;5074;53.720;10.014;2022-10-16T04:04:38;100588.31;;;11.04;100.00
10071;BME280;5074;53.720;10.014;2022-10-16T04:07:06;100598.19;;;11.02;100.00
10071;BME280;5074;53.720;10.014;2022-10-16T04:09:35;100598.19;;;11.02;100.00
10071;BME280;5074;53.720;10.014;2022-10-16T04:12:03;100607.09;;;11.02;100.00
10071;BME280;5074;53.720;10.014;2022-10-16T04:14:31;100606.22;;;11.02;100.00
10071;BME280;5074;53.720;10.014;2022-10-16T04:16:59;100614.19;;;11.03;100.00
10071;BME280;5074;53.720;10.014;2022-10-16T04:19:27;100613.38;;;11.01;100.00
10071;BME280;5074;53.720;10.014;2022-10-16T04:21:55;100605.28;;;11.03;100.00
10071;BME280;5074;53.720;10.014;2022-10-16T04:24:23;100620.41;;;11.04;100.00
10071;BME280;5074;53.720;10.014;2022-10-16T04:26:53;100625.69;;;11.05;100.00
10071;BME280;5074;53.720;10.014;2022-10-16T04:29:21;100615.06;;;11.04;100.00
10071;BME280;5074;53.720;10.014;2022-10-16T04:31:49;100624.81;;;11.05;100.00
10071;BME280;5074;53.720;10.014;2022-10-16T04:34:17;100611.50;;;11.03;100.00
10071;BME280;5074;53.720;10.014;2022-10-16T04:36:46;100623.22;;;11.01;100.00
10071;BME280;5074;53.720;10.014;2022-10-16T04:39:15;100618.78;;;11.00;100.00
10071;BME280;5074;53.720;10.014;2022-10-16T04:41:44;100627.75;;;10.99;100.00
10071;BME280;5074;53.720;10.014;2022-10-16T04:44:13;100626.94;;;10.97;100.00
10071;BME280;5074;53.720;10.014;2022-10-16T04:46:41;100631.31;;;10.99;100.00
10071;BME280;5074;53.720;10.014;2022-10-16T04:49:09;100638.69;;;10.92;100.00
10071;BME280;5074;53.720;10.014;2022-10-16T04:51:37;100635.09;;;10.93;100.00
10071;BME280;5074;53.720;10.014;2022-10-16T04:54:05;100640.53;;;10.90;100.00
10071;BME280;5074;53.720;10.014;2022-10-16T04:56:33;100634.44;;;10.87;100.00
10071;BME280;5074;53.720;10.014;2022-10-16T04:59:06;100636.19;;;10.88;100.00
10071;BME280;5074;53.720;10.014;2022-10-16T05:01:36;100634.56;;;10.84;100.00
10071;BME280;5074;53.720;10.014;2022-10-16T05:04:04;100630.78;;;10.89;100.00
10071;BME280;5074;53.720;10.014;2022-10-16T05:06:32;100629.28;;;10.82;100.00
10071;BME280;5074;53.720;10.014;2022-10-16T05:09:00;100638.81;;;10.89;100.00
10071;BME280;5074;53.720;10.014;2022-10-16T05:11:29;100637.06;;;10.88;100.00
10071;BME280;5074;53.720;10.014;2022-10-16T05:13:57;100636.25;;;10.86;100.00
10071;BME280;5074;53.720;10.014;2022-10-16T05:16:26;100634.38;;;10.88;100.00
10071;BME280;5074;53.720;10.014;2022-10-16T05:18:55;100637.91;;;10.89;100.00
10071;BME280;5074;53.720;10.014;2022-10-16T05:21:43;100648.47;;;10.93;100.00
10071;BME280;5074;53.720;10.014;2022-10-16T05:24:11;100646.56;;;10.95;100.00
10071;BME280;5074;53.720;10.014;2022-10-16T05:26:39;100645.53;;;11.00;100.00
10071;BME280;5074;53.720;10.014;2022-10-16T05:29:07;100652.44;;;11.05;100.00
10071;BME280;5074;53.720;10.014;2022-10-16T05:31:36;100652.31;;;11.08;100.00
10071;BME280;5074;53.720;10.014;2022-10-16T05:34:05;100656.63;;;11.12;100.00
10071;BME280;5074;53.720;10.014;2022-10-16T05:36:33;100669.88;;;11.16;100.00
10071;BME280;5074;53.720;10.014;2022-10-16T05:39:01;100672.50;;;11.17;100.00
10071;BME280;5074;53.720;10.014;2022-10-16T05:41:29;100674.31;;;11.17;100.00
10071;BME280;5074;53.720;10.014;2022-10-16T05:43:58;100676.84;;;11.20;100.00
10071;BME280;5074;53.720;10.014;2022-10-16T05:46:26;100674.00;;;11.24;100.00
10071;BME280;5074;53.720;10.014;2022-10-16T05:48:54;100672.19;;;11.25;100.00
10071;BME280;5074;53.720;10.014;2022-10-16T05:51:23;100673.06;;;11.25;100.00
10071;BME280;5074;53.720;10.014;2022-10-16T05:53:52;100666.81;;;11.25;100.00
10071;BME280;5074;53.720;10.014;2022-10-16T05:56:20;100671.38;;;11.23;100.00
10071;BME280;5074;53.720;10.014;2022-10-16T05:58:48;100668.56;;;11.26;100.00
10071;BME280;5074;53.720;10.014;2022-10-16T06:01:17;100665.31;;;11.18;100.00
10071;BME280;5074;53.720;10.014;2022-10-16T06:03:47;100674.84;;;11.25;100.00
10071;BME280;5074;53.720;10.014;2022-10-16T06:06:16;100673.19;;;11.22;100.00
10071;BME280;5074;53.720;10.014;2022-10-16T06:08:47;100675.91;;;11.21;100.00
10071;BME280;5074;53.720;10.014;2022-10-16T06:11:17;100680.38;;;11.20;100.00
10071;BME280;5074;53.720;10.014;2022-10-16T06:13:49;100666.38;;;11.13;100.00
10071;BME280;5074;53.720;10.014;2022-10-16T06:16:17;100677.59;;;11.23;100.00
10071;BME280;5074;53.720;10.014;2022-10-16T06:18:45;100685.69;;;11.22;100.00
10071;BME280;5074;53.720;10.014;2022-10-16T06:21:16;100684.81;;;11.21;100.00
10071;BME280;5074;53.720;10.014;2022-10-16T06:23:46;100683.94;;;11.21;100.00
10071;BME280;5074;53.720;10.014;2022-10-16T06:26:16;100682.06;;;11.23;100.00
10071;BME280;5074;53.720;10.014;2022-10-16T06:28:44;100687.44;;;11.23;100.00
10071;BME280;5074;53.720;10.014;2022-10-16T06:31:13;100685.75;;;11.20;100.00
10071;BME280;5074;53.720;10.014;2022-10-16T06:33:41;100684.00;;;11.19;100.00
10071;BME280;5074;53.720;10.014;2022-10-16T06:36:10;100689.25;;;11.22;100.00
10071;BME280;5074;53.720;10.014;2022-10-16T06:38:39;100697.16;;;11.25;100.00
10071;BME280;5074;53.720;10.014;2022-10-16T06:41:11;100696.09;;;11.29;100.00
10071;BME280;5074;53.720;10.014;2022-10-16T06:43:39;100702.13;;;11.35;100.00
10071;BME280;5074;53.720;10.014;2022-10-16T06:46:10;100706.44;;;11.39;100.00
10071;BME280;5074;53.720;10.014;2022-10-16T06:48:38;100715.31;;;11.39;100.00
10071;BME280;5074;53.720;10.014;2022-10-16T06:51:09;100720.53;;;11.42;100.00
10071;BME280;5074;53.720;10.014;2022-10-16T06:53:39;100724.56;;;11.54;100.00
10071;BME280;5074;53.720;10.014;2022-10-16T06:56:30;100722.63;;;11.58;100.00
10071;BME280;5074;53.720;10.014;2022-10-16T06:58:58;100739.25;;;11.66;100.00
10071;BME280;5074;53.720;10.014;2022-10-16T07:01:27;100736.19;;;11.75;100.00
10071;BME280;5074;53.720;10.014;2022-10-16T07:03:55;100736.75;;;11.84;100.00
10071;BME280;5074;53.720;10.014;2022-10-16T07:06:25;100736.44;;;11.91;100.00
10071;BME280;5074;53.720;10.014;2022-10-16T07:08:53;100736.03;;;12.02;100.00
10071;BME280;5074;53.720;10.014;2022-10-16T07:11:23;100736.38;;;12.15;100.00
10071;BME280;5074;53.720;10.014;2022-10-16T07:13:52;100743.16;;;12.24;100.00
10071;BME280;5074;53.720;10.014;2022-10-16T07:16:24;100748.19;;;12.31;100.00
10071;BME280;5074;53.720;10.014;2022-10-16T07:18:53;100755.84;;;12.41;100.00
10071;BME280;5074;53.720;10.014;2022-10-16T07:21:26;100744.78;;;12.48;100.00
10071;BME280;5074;53.720;10.014;2022-10-16T07:23:57;100751.69;;;12.54;100.00
10071;BME280;5074;53.720;10.014;2022-10-16T07:26:27;100763.81;;;12.63;100.00
10071;BME280;5074;53.720;10.014;2022-10-16T07:28:58;100759.19;;;12.66;100.00
10071;BME280;5074;53.720;10.014;2022-10-16T07:31:26;100768.63;;;12.75;100.00
10071;BME280;5074;53.720;10.014;2022-10-16T07:33:54;100764.22;;;12.74;100.00
10071;BME280;5074;53.720;10.014;2022-10-16T07:36:22;100778.34;;;12.78;100.00
10071;BME280;5074;53.720;10.014;2022-10-16T07:38:50;100777.34;;;12.80;100.00
10071;BME280;5074;53.720;10.014;2022-10-16T07:41:24;100788.88;;;12.82;100.00
10071;BME280;5074;53.720;10.014;2022-10-16T07:43:53;100776.34;;;12.83;100.00
10071;BME280;5074;53.720;10.014;2022-10-16T07:46:24;100780.81;;;12.82;100.00
10071;BME280;5074;53.720;10.014;2022-10-16T07:48:52;100785.31;;;12.82;100.00
10071;BME280;5074;53.720;10.014;2022-10-16T07:51:21;100794.91;;;12.88;100.00
10071;BME280;5074;53.720;10.014;2022-10-16T07:53:50;100781.50;;;12.88;100.00
10071;BME280;5074;53.720;10.014;2022-10-16T07:56:19;100791.47;;;12.84;100.00
10071;BME280;5074;53.720;10.014;2022-10-16T07:58:47;100794.16;;;12.84;100.00
10071;BME280;5074;53.720;10.014;2022-10-16T08:01:17;100798.72;;;12.82;100.00
10071;BME280;5074;53.720;10.014;2022-10-16T08:03:48;100810.22;;;12.85;100.00
10071;BME280;5074;53.720;10.014;2022-10-16T08:06:17;100808.53;;;12.83;100.00
10071;BME280;5074;53.720;10.014;2022-10-16T08:08:52;100798.94;;;12.77;100.00
10071;BME280;5074;53.720;10.014;2022-10-16T08:11:20;100809.59;;;12.79;100.00
10071;BME280;5074;53.720;10.014;2022-10-16T08:13:48;100802.63;;;12.75;100.00
10071;BME280;5074;53.720;10.014;2022-10-16T08:16:16;100808.91;;;12.74;100.00
10071;BME280;5074;53.720;10.014;2022-10-16T08:18:44;100810.75;;;12.73;100.00
10071;BME280;5074;53.720;10.014;2022-10-16T08:21:16;100816.25;;;12.70;100.00
10071;BME280;5074;53.720;10.014;2022-10-16T08:23:47;100824.28;;;12.70;100.00
10071;BME280;5074;53.720;10.014;2022-10-16T08:26:22;100819.66;;;12.74;100.00
10071;BME280;5074;53.720;10.014;2022-10-16T08:28:51;100823.88;;;12.79;100.00
10071;BME280;5074;53.720;10.014;2022-10-16T08:31:19;100821.06;;;12.82;100.00
10071;BME280;5074;53.720;10.014;2022-10-16T08:33:48;100823.66;;;12.84;100.00
10071;BME280;5074;53.720;10.014;2022-10-16T08:36:17;100821.66;;;12.89;100.00
10071;BME280;5074;53.720;10.014;2022-10-16T08:38:47;100823.22;;;12.95;100.00
10071;BME280;5074;53.720;10.014;2022-10-16T08:41:33;100811.34;;;13.00;100.00
10071;BME280;5074;53.720;10.014;2022-10-16T08:44:18;100822.78;;;13.04;100.00
10071;BME280;5074;53.720;10.014;2022-10-16T08:46:56;100828.03;;;13.07;100.00
10071;BME280;5074;53.720;10.014;2022-10-16T08:49:31;100818.97;;;13.10;100.00
10071;BME280;5074;53.720;10.014;2022-10-16T08:52:00;100827.69;;;13.15;100.00
10071;BME280;5074;53.720;10.014;2022-10-16T08:54:31;100818.34;;;13.24;100.00
10071;BME280;5074;53.720;10.014;2022-10-16T08:57:09;100817.97;;;13.31;100.00
10071;BME280;5074;53.720;10.014;2022-10-16T08:59:37;100830.47;;;13.32;100.00
10071;BME280;5074;53.720;10.014;2022-10-16T09:02:23;100840.88;;;13.40;100.00
10071;BME280;5074;53.720;10.014;2022-10-16T09:05:00;100852.50;;;13.41;100.00
10071;BME280;5074;53.720;10.014;2022-10-16T09:07:36;100846.25;;;13.40;100.00
10071;BME280;5074;53.720;10.014;2022-10-16T09:10:15;100853.16;;;13.46;100.00
10071;BME280;5074;53.720;10.014;2022-10-16T09:12:53;100859.06;;;13.54;100.00
10071;BME280;5074;53.720;10.014;2022-10-16T09:15:29;100860.81;;;13.55;100.00
10071;BME280;5074;53.720;10.014;2022-10-16T09:18:02;100864.06;;;13.62;100.00
10071;BME280;5074;53.720;10.014;2022-10-16T09:20:40;100860.97;;;13.71;100.00
10071;BME280;5074;53.720;10.014;2022-10-16T09:23:15;100861.59;;;13.76;100.00
10071;BME280;5074;53.720;10.014;2022-10-16T09:25:46;100867.34;;;13.87;100.00
10071;BME280;5074;53.720;10.014;2022-10-16T09:28:16;100867.94;;;13.94;100.00
10071;BME280;5074;53.720;10.014;2022-10-16T09:30:46;100864.16;;;13.98;100.00
10071;BME280;5074;53.720;10.014;2022-10-16T09:33:18;100874.75;;;14.01;100.00
10071;BME280;5074;53.720;10.014;2022-10-16T09:35:49;100855.78;;;14.04;100.00
10071;BME280;5074;53.720;10.014;2022-10-16T09:38:24;100863.63;;;14.09;100.00
10071;BME280;5074;53.720;10.014;2022-10-16T09:40:53;100857.22;;;14.12;100.00
10071;BME280;5074;53.720;10.014;2022-10-16T09:43:34;100849.69;;;14.20;100.00
10071;BME280;5074;53.720;10.014;2022-10-16T09:46:04;100850.53;;;14.20;100.00
10071;BME280;5074;53.720;10.014;2022-10-16T09:48:36;100857.34;;;14.28;100.00
10071;BME280;5074;53.720;10.014;2022-10-16T09:51:06;100866.94;;;14.33;100.00
10071;BME280;5074;53.720;10.014;2022-10-16T09:53:46;100873.09;;;14.35;100.00
10071;BME280;5074;53.720;10.014;2022-10-16T09:56:21;100876.28;;;14.44;100.00
10071;BME280;5074;53.720;10.014;2022-10-16T09:58:50;100883.19;;;14.49;100.00
10071;BME280;5074;53.720;10.014;2022-10-16T10:01:20;100891.88;;;14.54;100.00
10071;BME280;5074;53.720;10.014;2022-10-16T10:03:48;100890.69;;;14.60;100.00
10071;BME280;5074;53.720;10.014;2022-10-16T10:06:23;100894.22;;;14.62;100.00
10071;BME280;5074;53.720;10.014;2022-10-16T10:08:56;100900.22;;;14.67;100.00
10071;BME280;5074;53.720;10.014;2022-10-16T10:11:52;100903.56;;;14.72;100.00
10071;BME280;5074;53.720;10.014;2022-10-16T10:14:30;100891.63;;;14.78;100.00
10071;BME280;5074;53.720;10.014;2022-10-16T10:17:21;100894.94;;;14.83;100.00
10071;BME280;5074;53.720;10.014;2022-10-16T10:19:52;100907.06;;;14.92;100.00
10071;BME280;5074;53.720;10.014;2022-10-16T10:22:29;100909.44;;;14.98;100.00
10071;BME280;5074;53.720;10.014;2022-10-16T10:25:12;100904.06;;;14.98;100.00
10071;BME280;5074;53.720;10.014;2022-10-16T10:27:49;100908.25;;;15.04;100.00
10071;BME280;5074;53.720;10.014;2022-10-16T10:30:24;100900.72;;;15.10;100.00
10071;BME280;5074;53.720;10.014;2022-10-16T10:33:08;100910.38;;;15.15;100.00
10071;BME280;5074;53.720;10.014;2022-10-16T10:35:44;100914.75;;;15.17;100.00
10071;BME280;5074;53.720;10.014;2022-10-16T10:38:24;100914.16;;;15.28;100.00
10071;BME280;5074;53.720;10.014;2022-10-16T10:41:08;100917.97;;;15.41;100.00
10071;BME280;5074;53.720;10.014;2022-10-16T10:43:54;100934.44;;;15.35;100.00
10071;BME280;5074;53.720;10.014;2022-10-16T10:46:32;100906.56;;;15.36;100.00
10071;BME280;5074;53.720;10.014;2022-10-16T10:49:16;100915.91;;;15.29;100.00
10071;BME280;5074;53.720;10.014;2022-10-16T10:51:54;100911.19;;;15.17;100.00
10071;BME280;5074;53.720;10.014;2022-10-16T10:54:29;100918.63;;;15.11;100.00
10071;BME280;5074;53.720;10.014;2022-10-16T10:57:03;100920.91;;;15.19;100.00
10071;BME280;5074;53.720;10.014;2022-10-16T10:59:54;100927.88;;;15.23;100.00
10071;BME280;5074;53.720;10.014;2022-10-16T11:02:29;100928.34;;;15.32;100.00
10071;BME280;5074;53.720;10.014;2022-10-16T11:05:21;100920.84;;;15.38;100.00
10071;BME280;5074;53.720;10.014;2022-10-16T11:07:55;100923.53;;;15.38;100.00
10071;BME280;5074;53.720;10.014;2022-10-16T11:10:27;100936.09;;;15.38;100.00
10071;BME280;5074;53.720;10.014;2022-10-16T11:13:04;100950.13;;;15.44;100.00
10071;BME280;5074;53.720;10.014;2022-10-16T11:15:40;100954.22;;;15.52;100.00
10071;BME280;5074;53.720;10.014;2022-10-16T11:18:16;100958.81;;;15.67;100.00
10071;BME280;5074;53.720;10.014;2022-10-16T11:20:50;100951.84;;;15.80;100.00
10071;BME280;5074;53.720;10.014;2022-10-16T11:23:24;100950.56;;;15.88;100.00
10071;BME280;5074;53.720;10.014;2022-10-16T11:25:56;100950.03;;;15.97;100.00
10071;BME280;5074;53.720;10.014;2022-10-16T11:28:31;100954.22;;;16.03;100.00
10071;BME280;5074;53.720;10.014;2022-10-16T11:31:07;100959.97;;;16.12;100.00
10071;BME280;5074;53.720;10.014;2022-10-16T11:33:39;100966.31;;;16.11;100.00
10071;BME280;5074;53.720;10.014;2022-10-16T11:36:12;100959.88;;;16.14;100.00
10071;BME280;5074;53.720;10.014;2022-10-16T11:38:47;100957.56;;;16.24;100.00
10071;BME280;5074;53.720;10.014;2022-10-16T11:41:23;100962.22;;;16.20;100.00
10071;BME280;5074;53.720;10.014;2022-10-16T11:44:03;100969.63;;;16.17;100.00
10071;BME280;5074;53.720;10.014;2022-10-16T11:46:36;100976.59;;;16.05;100.00
10071;BME280;5074;53.720;10.014;2022-10-16T11:49:27;100984.00;;;15.84;100.00
10071;BME280;5074;53.720;10.014;2022-10-16T11:52:02;100982.09;;;15.86;100.00
10071;BME280;5074;53.720;10.014;2022-10-16T11:54:39;100989.69;;;15.95;100.00
10071;BME280;5074;53.720;10.014;2022-10-16T11:57:12;100983.31;;;15.96;100.00
10071;BME280;5074;53.720;10.014;2022-10-16T11:59:46;100989.69;;;15.95;100.00
10071;BME280;5074;53.720;10.014;2022-10-16T12:02:33;100989.97;;;16.06;100.00
10071;BME280;5074;53.720;10.014;2022-10-16T12:05:21;101003.72;;;16.18;100.00
10071;BME280;5074;53.720;10.014;2022-10-16T12:08:01;100996.09;;;16.26;100.00
10071;BME280;5074;53.720;10.014;2022-10-16T12:10:31;100992.63;;;16.24;100.00
10071;BME280;5074;53.720;10.014;2022-10-16T12:16:23;100994.88;;;16.47;100.00
10071;BME280;5074;53.720;10.014;2022-10-16T12:19:09;101020.66;;;16.53;100.00
10071;BME280;5074;53.720;10.014;2022-10-16T12:21:38;101011.06;;;16.79;100.00
10071;BME280;5074;53.720;10.014;2022-10-16T12:24:21;101023.44;;;16.83;100.00
10071;BME280;5074;53.720;10.014;2022-10-16T12:26:50;101025.38;;;16.97;100.00
10071;BME280;5074;53.720;10.014;2022-10-16T12:29:28;101025.63;;;16.93;100.00
10071;BME280;5074;53.720;10.014;2022-10-16T12:31:59;101030.88;;;16.96;100.00
10071;BME280;5074;53.720;10.014;2022-10-16T12:34:29;101031.25;;;17.04;100.00
10071;BME280;5074;53.720;10.014;2022-10-16T12:37:10;101040.34;;;17.03;100.00
10071;BME280;5074;53.720;10.014;2022-10-16T12:39:39;101041.03;;;16.91;100.00
10071;BME280;5074;53.720;10.014;2022-10-16T12:42:21;101031.81;;;16.95;100.00
10071;BME280;5074;53.720;10.014;2022-10-16T12:44:50;101045.88;;;16.84;100.00
10071;BME280;5074;53.720;10.014;2022-10-16T12:47:22;101038.16;;;16.94;100.00
10071;BME280;5074;53.720;10.014;2022-10-16T12:49:52;101044.06;;;16.84;100.00
10071;BME280;5074;53.720;10.014;2022-10-16T12:52:27;101045.03;;;16.83;100.00
10071;BME280;5074;53.720;10.014;2022-10-16T12:54:56;101048.25;;;16.74;100.00
10071;BME280;5074;53.720;10.014;2022-10-16T12:57:37;101052.94;;;16.71;100.00
10071;BME280;5074;53.720;10.014;2022-10-16T13:00:15;101067.97;;;16.43;100.00
10071;BME280;5074;53.720;10.014;2022-10-16T13:03:04;101064.47;;;16.41;100.00
10071;BME280;5074;53.720;10.014;2022-10-16T13:05:53;101058.34;;;16.87;100.00
10071;BME280;5074;53.720;10.014;2022-10-16T13:08:38;101072.31;;;16.95;100.00